Thursday, July 24, 2014
23:05 UTC
  |  Log In   |  Register Free
Airport Search:

Durant Regional - Eaker Field Airport
(KDUA)

Durant Regional - Eaker Field Airport Diagram
No Airport Diagram Available

FAA data valid effective July 24, 2014 until September 18, 2014 (unless otherwise noted).

 
 
 
 
 
 
 
 
 
 
 
 
 
 

Current Aviation Weather for Durant Regional - Eaker Field Airport (KDUA)

The most recent METAR observation for KDUA was updated at: 2235 UTC
METAR Summary (Translated METAR)
KDUA
242235Z AUTO 11006KT 10SM CLR 35/20 A3000 RMK AO2
KGYI
(19.5 nm SW from KDUA)
242235Z AUTO 05005KT 10SM CLR 34/18 A3000 RMK AO2 T03380176
TAF
No TAF information found within 50 nm of KDUA
  Airport Weather Conditions for KDUA

 Current Weather at DUA
95° F
Fair
South winds at 5.8 mph
DUA NOAA Radar

Pressure: 30.01 in
Humidity: 41%
Wind: South at 5.8 MPH (5 KT)
Dew Point: 68.0°F
Visibility: 10.00 mi


Airport Weather Forecast for KDUA

Translated METAR and TAF for KDUA
Translated METAR for KDUA (2259 UTC 24 July 2014)
found at http://aviationweather.gov/adds/metars/
 
METAR text: KDUA 242255Z AUTO 10006KT 10SM CLR 35/21 A2999 RMK AO2
Conditions at: KDUA (DURANT , OK, US) observed 2255 UTC 24 July 2014
Temperature: 35.0°C (95°F)
Dewpoint: 21.0°C (70°F) [RH = 44%]
Pressure (altimeter): 29.99 inches Hg (1015.7 mb)
Winds: from the E (100 degrees) at 7 MPH (6 knots; 3.1 m/s)
Visibility: 10 or more miles (16+ km)
Ceiling: at least 12,000 feet AGL
Clouds: sky clear below 12,000 feet AGL
Weather: automated observation with no human augmentation;
there may or may not be significant weather present at this time
Translated TAF for KDUA

There is no translated TAF available for this airport

Find All Airport Services Find A Hotel Find A Rental Car Find A Golf Course Find A Restaurant $100 Hamburger



FBO's on the Field
FBO Company Facility Photos Services Transportation Aviation Fuel Prices: Prices include tax
Catering Weather Repair Courtesy Rental Type 100LL JetA JetA+ MOGAS 8087
 
D/W Aviation

This FBO has not yet been rated
FS:Avfuel
Last Updated: Jun-27
Login to update fuel prices
SS:
Contact D/W AviationMore FBO Information
 
Add another FBO Facility Photos Catering Weather Repair Courtesy Rental Type 100LL JetA JetA+ MOGAS 8087
Services Transportation Aviation Fuel Prices: Prices include tax


GlobalAir.com Airport Resource Center model-print
model-print
model-print
model-print